createdAt,value
2016-04-06T00:00:44.257Z,0
2016-04-06T00:01:43.791Z,0
2016-04-06T00:02:43.654Z,0
2016-04-06T00:03:43.827Z,0
2016-04-06T00:04:43.784Z,0
2016-04-06T00:05:43.786Z,0
2016-04-06T00:06:43.804Z,0
2016-04-06T00:07:43.807Z,0
2016-04-06T00:08:43.794Z,0
2016-04-06T00:09:43.812Z,0
2016-04-06T00:10:43.767Z,0
2016-04-06T00:11:43.770Z,0
2016-04-06T00:12:43.633Z,0
2016-04-06T00:13:43.791Z,0
2016-04-06T00:14:43.778Z,0
2016-04-06T00:15:43.734Z,0
2016-04-06T00:16:43.768Z,0
2016-04-06T00:17:43.739Z,0
2016-04-06T00:18:43.774Z,0
2016-04-06T00:19:43.777Z,0
2016-04-06T00:20:43.779Z,0
2016-04-06T00:21:43.735Z,0
2016-04-06T00:22:43.738Z,0
2016-04-06T00:23:43.756Z,0
2016-04-06T00:24:43.727Z,0
2016-04-06T00:25:43.746Z,0
2016-04-06T00:26:43.748Z,0
2016-04-06T00:27:43.720Z,0
2016-04-06T00:28:43.738Z,0
2016-04-06T00:29:43.710Z,0
2016-04-06T00:30:43.760Z,0
2016-04-06T00:31:43.700Z,0
2016-04-06T00:32:43.734Z,0
2016-04-06T00:33:43.705Z,0
2016-04-06T00:34:43.723Z,0
2016-04-06T00:35:43.726Z,0
2016-04-06T00:36:43.712Z,0
2016-04-06T00:37:43.715Z,0
2016-04-06T00:38:43.718Z,0
2016-04-06T00:39:43.690Z,0
2016-04-06T00:40:43.677Z,0
2016-04-06T00:41:43.679Z,0
2016-04-06T00:42:43.761Z,0
2016-04-06T00:43:43.731Z,0
2016-04-06T00:44:43.719Z,0
2016-04-06T00:45:43.722Z,0
2016-04-06T00:46:43.708Z,0
2016-04-06T00:47:43.556Z,0
2016-04-06T00:48:43.667Z,0
2016-04-06T00:49:43.655Z,0
2016-04-06T00:50:43.672Z,0
2016-04-06T00:51:43.660Z,0
2016-04-06T00:52:43.663Z,0
2016-04-06T00:53:43.649Z,0
2016-04-06T00:54:43.652Z,0
2016-04-06T00:55:43.654Z,0
2016-04-06T00:56:43.502Z,0
2016-04-06T00:57:43.660Z,0
2016-04-06T00:58:59.725Z,0
2016-04-06T00:59:45.072Z,0
2016-04-06T01:00:43.637Z,0
2016-04-06T01:01:43.718Z,0
2016-04-06T01:02:44.268Z,0
2016-04-06T01:04:45.866Z,0
2016-04-06T01:05:45.259Z,0
2016-04-06T01:06:44.434Z,0
2016-04-06T01:07:44.671Z,0
2016-04-06T01:08:46.674Z,0
2016-04-06T01:09:45.521Z,0
2016-04-06T01:10:44.492Z,0
2016-04-06T01:11:43.589Z,0
2016-04-06T01:12:44.262Z,0
2016-04-06T01:13:43.953Z,0
2016-04-06T01:14:45.268Z,0
2016-04-06T01:15:43.584Z,0
2016-04-06T01:16:43.571Z,0
2016-04-06T01:17:44.120Z,0
2016-04-06T01:18:43.592Z,0
2016-04-06T01:19:44.391Z,0
2016-04-06T01:20:43.581Z,0
2016-04-06T01:21:43.678Z,0
2016-04-06T01:22:43.571Z,0
2016-04-06T01:23:43.542Z,0
2016-04-06T01:24:43.560Z,0
2016-04-06T01:25:43.533Z,0
2016-04-06T01:26:43.550Z,0
2016-04-06T01:27:43.553Z,0
2016-04-06T01:28:43.572Z,0
2016-04-06T01:29:43.527Z,0
2016-04-06T01:30:43.530Z,0
2016-04-06T01:31:43.517Z,0
2016-04-06T01:32:43.520Z,0
2016-04-06T01:33:43.506Z,0
2016-04-06T01:34:43.525Z,0
2016-04-06T01:35:43.512Z,0
2016-04-06T01:36:43.531Z,0
2016-04-06T01:37:43.487Z,0
2016-04-06T01:38:43.505Z,0
2016-04-06T01:39:43.476Z,0
2016-04-06T01:40:43.495Z,0
2016-04-06T01:41:43.465Z,0
2016-04-06T01:42:43.500Z,0
2016-04-06T01:43:43.456Z,0
2016-04-06T01:44:43.474Z,0
2016-04-06T01:45:43.462Z,0
2016-04-06T01:46:43.448Z,0
2016-04-06T01:47:43.467Z,0
2016-04-06T01:48:43.469Z,0
2016-04-06T01:49:43.456Z,0
2016-04-06T01:50:43.443Z,0
2016-04-06T01:51:43.446Z,0
2016-04-06T01:52:43.433Z,0
2016-04-06T01:53:43.451Z,0
2016-04-06T01:54:43.439Z,0
2016-04-06T01:55:43.425Z,0
2016-04-06T01:56:43.428Z,0
2016-04-06T01:57:43.416Z,0
2016-04-06T01:58:43.433Z,0
2016-04-06T01:59:43.405Z,0
2016-04-06T02:00:43.423Z,0
2016-04-06T02:01:43.441Z,0
2016-04-06T02:02:43.381Z,0
2016-04-06T02:03:43.399Z,0
2016-04-06T02:04:43.402Z,0
2016-04-06T02:05:43.390Z,0
2016-04-06T02:06:43.393Z,0
2016-04-06T02:07:42.504Z,0
2016-04-06T02:08:43.531Z,0
2016-04-06T02:09:43.394Z,0
2016-04-06T02:10:43.349Z,0
2016-04-06T02:11:43.368Z,0
2016-04-06T02:12:43.370Z,0
2016-04-06T02:13:43.373Z,0
2016-04-06T02:14:43.329Z,0
2016-04-06T02:15:43.363Z,0
2016-04-06T02:16:43.335Z,0
2016-04-06T02:17:44.337Z,0
2016-04-06T02:18:43.543Z,0
2016-04-06T02:19:44.529Z,0
2016-04-06T02:21:57.520Z,0
2016-04-06T02:22:44.976Z,0
2016-04-06T02:23:44.854Z,0
2016-04-06T02:24:43.825Z,0
2016-04-06T02:25:43.328Z,0
2016-04-06T02:26:43.642Z,0
2016-04-06T02:27:45.270Z,0
2016-04-06T02:28:44.944Z,0
2016-04-06T02:29:44.009Z,0
2016-04-06T02:30:43.294Z,0
2016-04-06T02:31:43.562Z,0
2016-04-06T02:32:45.690Z,0
2016-04-06T02:33:44.084Z,0
2016-04-06T02:34:44.070Z,0
2016-04-06T02:35:43.792Z,0
2016-04-06T02:36:43.263Z,0
2016-04-06T02:37:43.719Z,0
2016-04-06T02:38:43.238Z,0
2016-04-06T02:39:43.240Z,0
2016-04-06T02:40:43.289Z,0
2016-04-06T02:41:43.246Z,0
2016-04-06T02:42:43.232Z,0
2016-04-06T02:43:43.235Z,0
2016-04-06T02:44:43.207Z,0
2016-04-06T02:45:43.225Z,0
2016-04-06T02:46:43.227Z,0
2016-04-06T02:47:43.183Z,0
2016-04-06T02:48:43.217Z,0
2016-04-06T02:49:43.204Z,0
2016-04-06T02:50:43.207Z,0
2016-04-06T02:51:43.163Z,0
2016-04-06T02:52:43.197Z,0
2016-04-06T02:53:43.168Z,0
2016-04-06T02:54:43.187Z,0
2016-04-06T02:55:43.173Z,0
2016-04-06T02:56:43.192Z,0
2016-04-06T02:57:43.164Z,0
2016-04-06T02:58:43.166Z,0
2016-04-06T02:59:43.169Z,0
2016-04-06T03:00:43.140Z,0
2016-04-06T03:01:43.175Z,0
2016-04-06T03:02:43.146Z,0
2016-04-06T03:03:43.148Z,0
2016-04-06T03:04:43.136Z,0
2016-04-06T03:05:43.123Z,0
2016-04-06T03:06:43.125Z,0
2016-04-06T03:07:43.159Z,0
2016-04-06T03:08:43.099Z,0
2016-04-06T03:09:43.149Z,0
2016-04-06T03:10:42.994Z,0
2016-04-06T03:11:43.122Z,0
2016-04-06T03:12:42.969Z,0
2016-04-06T03:13:43.128Z,0
2016-04-06T03:14:43.085Z,0
2016-04-06T03:15:43.071Z,0
2016-04-06T03:16:43.090Z,0
2016-04-06T03:17:43.310Z,0
2016-04-06T03:18:43.095Z,0
2016-04-06T03:19:43.082Z,0
2016-04-06T03:20:43.069Z,0
2016-04-06T03:21:43.072Z,0
2016-04-06T03:22:43.059Z,0
2016-04-06T03:23:43.077Z,0
2016-04-06T03:24:43.048Z,0
2016-04-06T03:25:43.082Z,0
2016-04-06T03:26:43.037Z,0
2016-04-06T03:27:43.056Z,0
2016-04-06T03:28:43.028Z,0
2016-04-06T03:29:43.014Z,0
2016-04-06T03:30:43.049Z,0
2016-04-06T03:31:43.036Z,0
2016-04-06T03:32:43.070Z,0
2016-04-06T03:33:43.057Z,0
2016-04-06T03:34:43.014Z,0
2016-04-06T03:35:43.000Z,0
2016-04-06T03:36:45.862Z,0
2016-04-06T03:37:44.099Z,0
2016-04-06T03:40:43.247Z,0
2016-04-06T03:41:44.360Z,0
2016-04-06T03:42:44.081Z,0
2016-04-06T03:43:42.975Z,0
2016-04-06T03:44:43.805Z,0
2016-04-06T03:45:43.589Z,0
2016-04-06T03:46:44.341Z,0
2016-04-06T03:47:43.501Z,0
2016-04-06T03:48:42.972Z,0
2016-04-06T03:49:43.132Z,0
2016-04-06T03:50:43.149Z,0
2016-04-06T03:51:44.934Z,0
2016-04-06T03:52:45.327Z,0
2016-04-06T03:53:42.939Z,0
2016-04-06T03:54:44.113Z,0
2016-04-06T03:55:43.710Z,0
2016-04-06T03:56:43.134Z,0
2016-04-06T03:57:42.950Z,0
2016-04-06T03:58:42.936Z,0
2016-04-06T03:59:42.893Z,0
2016-04-06T04:00:42.895Z,0
2016-04-06T04:01:42.882Z,0
2016-04-06T04:02:42.901Z,0
2016-04-06T04:03:42.872Z,0
2016-04-06T04:04:42.875Z,0
2016-04-06T04:05:42.877Z,0
2016-04-06T04:06:42.864Z,0
2016-04-06T04:07:42.898Z,0
2016-04-06T04:08:42.855Z,0
2016-04-06T04:09:42.858Z,0
2016-04-06T04:10:42.860Z,0
2016-04-06T04:11:42.816Z,0
2016-04-06T04:12:42.849Z,0
2016-04-06T04:13:42.852Z,0
2016-04-06T04:14:42.839Z,0
2016-04-06T04:15:42.827Z,0
2016-04-06T04:16:42.829Z,0
2016-04-06T04:17:42.800Z,0
2016-04-06T04:18:42.819Z,0
2016-04-06T04:19:42.805Z,0
2016-04-06T04:20:42.824Z,0
2016-04-06T04:21:42.811Z,0
2016-04-06T04:22:42.657Z,5
2016-04-06T04:23:42.785Z,5
2016-04-06T04:24:42.648Z,5
2016-04-06T04:25:42.790Z,5
2016-04-06T04:26:42.793Z,5
2016-04-06T04:27:42.796Z,5
2016-04-06T04:28:42.783Z,5
2016-04-06T04:29:42.755Z,5
2016-04-06T04:30:42.773Z,5
2016-04-06T04:31:42.760Z,10
2016-04-06T04:32:42.731Z,10
2016-04-06T04:33:42.750Z,10
2016-04-06T04:34:43.174Z,10
2016-04-06T04:35:42.723Z,10
2016-04-06T04:36:42.742Z,10
2016-04-06T04:37:42.728Z,10
2016-04-06T04:38:42.716Z,10
2016-04-06T04:39:42.000Z,15
2016-04-06T04:40:42.722Z,15
2016-04-06T04:41:42.708Z,15
2016-04-06T04:42:42.711Z,15
2016-04-06T04:43:42.699Z,15
2016-04-06T04:44:42.685Z,20
2016-04-06T04:45:42.719Z,20
2016-04-06T04:46:42.675Z,20
2016-04-06T04:47:42.693Z,20
2016-04-06T04:48:42.666Z,25
2016-04-06T04:49:43.293Z,25
2016-04-06T04:50:42.498Z,25
2016-04-06T04:51:42.673Z,30
2016-04-06T04:52:42.660Z,30
2016-04-06T04:53:42.646Z,30
2016-04-06T04:54:42.650Z,30
2016-04-06T04:55:43.090Z,35
2016-04-06T04:56:44.374Z,35
2016-04-06T04:57:42.658Z,35
2016-04-06T04:58:41.926Z,40
2016-04-06T05:00:44.666Z,40
2016-04-06T05:01:42.825Z,45
2016-04-06T05:02:44.687Z,45
2016-04-06T05:03:42.955Z,50
2016-04-06T05:04:44.583Z,50
2016-04-06T05:05:43.850Z,55
2016-04-06T05:06:43.354Z,60
2016-04-06T05:07:42.935Z,65
2016-04-06T05:08:56.781Z,70
2016-04-06T05:09:43.097Z,75
2016-04-06T05:10:44.053Z,75
2016-04-06T05:11:44.383Z,70
2016-04-06T05:12:44.152Z,70
2016-04-06T05:13:43.608Z,75
2016-04-06T05:14:42.766Z,75
2016-04-06T05:15:43.097Z,75
2016-04-06T05:16:42.521Z,75
2016-04-06T05:17:42.540Z,75
2016-04-06T05:18:42.527Z,75
2016-04-06T05:19:42.421Z,75
2016-04-06T05:20:42.563Z,80
2016-04-06T05:21:42.504Z,80
2016-04-06T05:22:42.507Z,80
2016-04-06T05:23:42.524Z,75
2016-04-06T05:24:42.496Z,75
2016-04-06T05:25:42.483Z,75
2016-04-06T05:26:42.501Z,70
2016-04-06T05:27:42.473Z,70
2016-04-06T05:28:42.487Z,75
2016-04-06T05:29:42.332Z,75
2016-04-06T05:30:42.476Z,75
2016-04-06T05:31:42.463Z,75
2016-04-06T05:32:42.451Z,75
2016-04-06T05:33:42.468Z,75
2016-04-06T05:34:42.518Z,80
2016-04-06T05:35:42.459Z,80
2016-04-06T05:36:42.462Z,80
2016-04-06T05:37:42.432Z,85
2016-04-06T05:38:42.481Z,90
2016-04-06T05:39:42.438Z,90
2016-04-06T05:40:42.440Z,95
2016-04-06T05:41:42.412Z,95
2016-04-06T05:42:42.431Z,100
2016-04-06T05:43:42.417Z,100
2016-04-06T05:44:42.436Z,110
2016-04-06T05:45:42.423Z,115
2016-04-06T05:46:42.394Z,140
2016-04-06T05:47:42.397Z,230
2016-04-06T05:48:42.399Z,255
2016-04-06T05:49:42.480Z,250
2016-04-06T05:50:42.374Z,230
2016-04-06T05:51:42.360Z,305
2016-04-06T05:52:42.394Z,350
2016-04-06T05:53:42.366Z,370
2016-04-06T05:54:42.369Z,380
2016-04-06T05:55:42.371Z,390
2016-04-06T05:56:42.374Z,400
2016-04-06T05:57:42.439Z,405
2016-04-06T05:58:42.989Z,420
2016-04-06T05:59:42.352Z,430
2016-04-06T06:00:42.353Z,440
2016-04-06T06:01:42.341Z,440
2016-04-06T06:02:42.343Z,450
2016-04-06T06:03:42.342Z,450
2016-04-06T06:04:42.405Z,455
2016-04-06T06:05:42.453Z,460
2016-04-06T06:06:42.486Z,455
2016-04-06T06:07:42.550Z,445
2016-04-06T06:08:42.543Z,460
2016-04-06T06:09:42.578Z,485
2016-04-06T06:10:42.566Z,510
2016-04-06T06:11:42.615Z,520
2016-04-06T06:12:42.604Z,545
2016-04-06T06:13:42.635Z,560
2016-04-06T06:14:56.909Z,570
2016-04-06T06:15:42.746Z,570
2016-04-06T06:16:43.160Z,570
2016-04-06T06:17:43.231Z,600
2016-04-06T06:18:42.973Z,615
2016-04-06T06:19:43.477Z,610
2016-04-06T06:20:43.123Z,615
2016-04-06T06:21:44.597Z,645
2016-04-06T06:22:43.164Z,675
2016-04-06T06:23:44.528Z,685
2016-04-06T06:24:44.157Z,660
2016-04-06T06:25:43.693Z,660
2016-04-06T06:26:42.711Z,675
2016-04-06T06:27:56.933Z,690
2016-04-06T06:28:42.968Z,695
2016-04-06T06:29:45.206Z,700
2016-04-06T06:30:43.037Z,710
2016-04-06T06:31:42.993Z,730
2016-04-06T06:32:42.777Z,740
2016-04-06T06:33:43.686Z,775
2016-04-06T06:34:42.876Z,805
2016-04-06T06:35:43.629Z,815
2016-04-06T06:36:42.773Z,805
2016-04-06T06:37:42.807Z,780
2016-04-06T06:38:42.762Z,790
2016-04-06T06:39:42.749Z,815
2016-04-06T06:40:42.784Z,860
2016-04-06T06:41:42.771Z,895
2016-04-06T06:42:42.789Z,870
2016-04-06T06:43:42.792Z,825
2016-04-06T06:44:42.795Z,790
2016-04-06T06:45:42.798Z,805
2016-04-06T06:46:42.831Z,825
2016-04-06T06:47:42.817Z,865
2016-04-06T06:48:42.851Z,880
2016-04-06T06:49:42.839Z,905
2016-04-06T06:50:42.873Z,900
2016-04-06T06:51:42.844Z,905
2016-04-06T06:52:42.878Z,920
2016-04-06T06:53:42.865Z,910
2016-04-06T06:54:42.883Z,920
2016-04-06T06:55:42.870Z,925
2016-04-06T06:56:42.889Z,955
2016-04-06T06:57:42.923Z,970
2016-04-06T06:58:42.941Z,1010
2016-04-06T06:59:42.943Z,995
2016-04-06T07:00:42.930Z,980
2016-04-06T07:01:42.966Z,975
2016-04-06T07:02:42.952Z,985
2016-04-06T07:03:42.986Z,1030
2016-04-06T07:04:42.988Z,990
2016-04-06T07:05:42.976Z,935
2016-04-06T07:06:43.010Z,930
2016-04-06T07:07:43.012Z,960
2016-04-06T07:08:43.046Z,990
2016-04-06T07:09:43.033Z,1010
2016-04-06T07:10:43.068Z,1020
2016-04-06T07:11:43.038Z,990
2016-04-06T07:12:43.073Z,1020
2016-04-06T07:13:43.075Z,1020
2016-04-06T07:14:43.093Z,1050
2016-04-06T07:15:43.111Z,1050
2016-04-06T07:16:43.114Z,1070
2016-04-06T07:17:43.133Z,1100
2016-04-06T07:18:43.136Z,1150
2016-04-06T07:19:43.138Z,1145
2016-04-06T07:20:43.173Z,1235
2016-04-06T07:21:43.175Z,1175
2016-04-06T07:22:43.193Z,1220
2016-04-06T07:23:43.196Z,1135
2016-04-06T07:24:43.231Z,1185
2016-04-06T07:25:43.201Z,1185
2016-04-06T07:26:43.250Z,1125
2016-04-06T07:27:43.222Z,1150
2016-04-06T07:28:43.256Z,1375
2016-04-06T07:29:43.274Z,1495
2016-04-06T07:30:43.293Z,1490
2016-04-06T07:31:43.311Z,1520
2016-04-06T07:32:43.298Z,1375
2016-04-06T07:33:43.833Z,1425
2016-04-06T07:34:44.272Z,1375
2016-04-06T07:35:44.400Z,1595
2016-04-06T07:36:44.230Z,1620
2016-04-06T07:37:43.796Z,1475
2016-04-06T07:38:45.174Z,1600
2016-04-06T07:39:45.052Z,1680
2016-04-06T07:40:44.616Z,1705
2016-04-06T07:41:43.760Z,1735
2016-04-06T07:42:44.263Z,1700
2016-04-06T07:43:44.296Z,1710
2016-04-06T07:44:43.502Z,1685
2016-04-06T07:45:44.834Z,1690
2016-04-06T07:46:43.696Z,1640
2016-04-06T07:47:57.714Z,1620
2016-04-06T07:48:44.373Z,1630
2016-04-06T07:49:45.845Z,1670
2016-04-06T07:50:43.565Z,1640
2016-04-06T07:51:43.740Z,1450
2016-04-06T07:52:43.570Z,1205
2016-04-06T07:53:44.339Z,1135
2016-04-06T07:54:43.733Z,1165
2016-04-06T07:55:43.625Z,1170
2016-04-06T07:56:43.628Z,1220
2016-04-06T07:57:43.662Z,1155
2016-04-06T07:58:43.665Z,1200
2016-04-06T07:59:43.667Z,1290
2016-04-06T08:00:43.717Z,1275
2016-04-06T08:01:43.719Z,1285
2016-04-06T08:02:43.708Z,1270
2016-04-06T08:03:43.757Z,1265
2016-04-06T08:04:43.759Z,1255
2016-04-06T08:05:43.777Z,1250
2016-04-06T08:06:43.780Z,1205
2016-04-06T08:07:43.814Z,1270
2016-04-06T08:08:43.817Z,1235
2016-04-06T08:09:43.851Z,1175
2016-04-06T08:10:43.822Z,1245
2016-04-06T08:11:43.857Z,1210
2016-04-06T08:12:44.077Z,1340
2016-04-06T08:13:43.862Z,1300
2016-04-06T08:14:43.896Z,1260
2016-04-06T08:15:43.914Z,1330
2016-04-06T08:16:43.917Z,1305
2016-04-06T08:17:43.919Z,1300
2016-04-06T08:18:43.937Z,1330
2016-04-06T08:19:43.925Z,1055
2016-04-06T08:20:44.223Z,585
2016-04-06T08:21:43.976Z,420
2016-04-06T08:22:44.011Z,415
2016-04-06T08:23:44.014Z,420
2016-04-06T08:24:44.017Z,420
2016-04-06T08:25:44.050Z,430
2016-04-06T08:26:44.037Z,430
2016-04-06T08:27:44.055Z,395
2016-04-06T08:28:44.075Z,445
2016-04-06T08:29:44.045Z,440
2016-04-06T08:30:44.095Z,480
2016-04-06T08:31:44.097Z,470
2016-04-06T08:32:44.116Z,485
2016-04-06T08:33:44.088Z,485
2016-04-06T08:34:44.122Z,495
2016-04-06T08:35:44.515Z,550
2016-04-06T08:36:44.127Z,465
2016-04-06T08:37:44.113Z,460
2016-04-06T08:38:44.163Z,545
2016-04-06T08:39:44.150Z,525
2016-04-06T08:40:44.153Z,535
2016-04-06T08:41:44.155Z,595
2016-04-06T08:42:44.158Z,585
2016-04-06T08:43:44.161Z,600
2016-04-06T08:44:44.180Z,555
2016-04-06T08:45:44.182Z,570
2016-04-06T08:46:44.185Z,610
2016-04-06T08:47:44.188Z,575
2016-04-06T08:48:44.206Z,555
2016-04-06T08:49:44.192Z,460
2016-04-06T08:50:44.524Z,525
2016-04-06T08:51:44.198Z,585
2016-04-06T08:52:46.029Z,615
2016-04-06T08:54:13.345Z,605
2016-04-06T08:54:44.253Z,620
2016-04-06T08:55:44.990Z,610
2016-04-06T08:56:47.884Z,590
2016-04-06T08:57:45.761Z,530
2016-04-06T08:58:46.139Z,515
2016-04-06T08:59:45.297Z,540
2016-04-06T09:00:44.348Z,595
2016-04-06T09:01:47.084Z,590
2016-04-06T09:03:12.822Z,510
2016-04-06T09:03:44.808Z,480
2016-04-06T09:04:45.342Z,440
2016-04-06T09:05:45.424Z,445
2016-04-06T09:06:44.739Z,430
2016-04-06T09:07:45.600Z,370
2016-04-06T09:08:46.682Z,370
2016-04-06T09:09:44.434Z,480
2016-04-06T09:10:44.327Z,480
2016-04-06T09:11:44.877Z,460
2016-04-06T09:12:44.957Z,450
2016-04-06T09:13:44.305Z,365
2016-04-06T09:14:44.729Z,340
2016-04-06T09:15:44.309Z,395
2016-04-06T09:16:44.328Z,490
2016-04-06T09:17:44.362Z,475
2016-04-06T09:18:44.334Z,465
2016-04-06T09:19:44.336Z,490
2016-04-06T09:20:44.261Z,510
2016-04-06T09:21:44.185Z,515
2016-04-06T09:22:44.375Z,550
2016-04-06T09:23:44.332Z,520
2016-04-06T09:24:44.365Z,500
2016-04-06T09:25:44.337Z,455
2016-04-06T09:26:44.370Z,410
2016-04-06T09:27:44.342Z,420
2016-04-06T09:28:44.376Z,470
2016-04-06T09:29:44.363Z,515
2016-04-06T09:30:44.397Z,550
2016-04-06T09:31:44.415Z,550
2016-04-06T09:32:44.387Z,555
2016-04-06T09:33:44.374Z,585
2016-04-06T09:34:44.392Z,630
2016-04-06T09:35:44.614Z,635
2016-04-06T09:36:44.382Z,605
2016-04-06T09:37:44.416Z,605
2016-04-06T09:38:44.231Z,640
2016-04-06T09:39:44.405Z,620
2016-04-06T09:40:44.408Z,580
2016-04-06T09:41:44.411Z,565
2016-04-06T09:42:44.434Z,580
2016-04-06T09:43:44.437Z,570
2016-04-06T09:44:44.440Z,570
2016-04-06T09:45:44.419Z,565
2016-04-06T09:46:44.438Z,520
2016-04-06T09:47:44.472Z,490
2016-04-06T09:48:44.443Z,485
2016-04-06T09:49:44.431Z,500
2016-04-06T09:50:44.355Z,515
2016-04-06T09:51:44.467Z,515
2016-04-06T09:52:44.438Z,530
2016-04-06T09:53:44.488Z,540
2016-04-06T09:54:44.444Z,560
2016-04-06T09:55:44.493Z,590
2016-04-06T09:56:44.465Z,625
2016-04-06T09:57:44.483Z,610
2016-04-06T09:58:44.501Z,550
2016-04-06T09:59:44.504Z,490
2016-04-06T10:00:44.334Z,420
2016-04-06T10:01:44.510Z,360
2016-04-06T10:02:44.481Z,325
2016-04-06T10:03:44.203Z,315
2016-04-06T10:04:44.502Z,330
2016-04-06T10:05:44.567Z,335
2016-04-06T10:06:44.507Z,330
2016-04-06T10:07:44.542Z,315
2016-04-06T10:08:44.528Z,310
2016-04-06T10:09:44.547Z,305
2016-04-06T10:10:44.518Z,290
2016-04-06T10:12:00.302Z,285
2016-04-06T10:12:45.102Z,280
2016-04-06T10:13:44.933Z,280
2016-04-06T10:14:44.560Z,280
2016-04-06T10:15:45.438Z,305
2016-04-06T10:17:47.037Z,415
2016-04-06T10:18:46.211Z,490
2016-04-06T10:19:45.089Z,555
2016-04-06T10:20:45.811Z,580
2016-04-06T10:21:45.032Z,575
2016-04-06T10:22:46.097Z,525
2016-04-06T10:23:45.116Z,480
2016-04-06T10:24:44.915Z,445
2016-04-06T10:25:44.637Z,405
2016-04-06T10:26:46.796Z,375
2016-04-06T10:27:44.893Z,360
2016-04-06T10:28:45.176Z,365
2016-04-06T10:29:45.006Z,390
2016-04-06T10:30:44.604Z,425
2016-04-06T10:31:45.028Z,415
2016-04-06T10:32:44.640Z,395
2016-04-06T10:33:44.611Z,385
2016-04-06T10:34:44.615Z,380
2016-04-06T10:35:44.523Z,410
2016-04-06T10:36:44.666Z,425
2016-04-06T10:37:44.622Z,455
2016-04-06T10:38:44.656Z,475
2016-04-06T10:39:44.643Z,485
2016-04-06T10:40:44.645Z,470
2016-04-06T10:41:44.633Z,480
2016-04-06T10:42:44.651Z,485
2016-04-06T10:43:44.653Z,470
2016-04-06T10:44:44.656Z,460
2016-04-06T10:45:44.644Z,465
2016-04-06T10:46:44.678Z,515
2016-04-06T10:47:44.665Z,540
2016-04-06T10:48:44.667Z,560
2016-04-06T10:49:44.654Z,565
2016-04-06T10:50:44.704Z,590
2016-04-06T10:51:44.707Z,580
2016-04-06T10:52:44.741Z,480
2016-04-06T10:53:44.665Z,420
2016-04-06T10:54:44.699Z,395
2016-04-06T10:55:44.421Z,395
2016-04-06T10:56:44.595Z,405
2016-04-06T10:57:44.707Z,410
2016-04-06T10:58:44.726Z,445
2016-04-06T10:59:44.712Z,470
2016-04-06T11:00:44.746Z,475
2016-04-06T11:01:44.701Z,505
2016-04-06T11:02:44.721Z,510
2016-04-06T11:03:44.707Z,470
2016-04-06T11:04:44.741Z,450
2016-04-06T11:05:44.728Z,425
2016-04-06T11:06:44.748Z,405
2016-04-06T11:07:44.718Z,405
2016-04-06T11:08:44.752Z,385
2016-04-06T11:09:44.724Z,370
2016-04-06T11:10:44.789Z,390
2016-04-06T11:11:44.728Z,420
2016-04-06T11:12:44.779Z,445
2016-04-06T11:13:44.751Z,465
2016-04-06T11:14:44.753Z,500
2016-04-06T11:15:44.771Z,520
2016-04-06T11:16:44.774Z,540
2016-04-06T11:17:44.792Z,530
2016-04-06T11:18:44.779Z,555
2016-04-06T11:19:44.782Z,580
2016-04-06T11:20:44.785Z,600
2016-04-06T11:21:44.819Z,625
2016-04-06T11:22:44.790Z,620
2016-04-06T11:23:44.793Z,625
2016-04-06T11:24:44.811Z,600
2016-04-06T11:25:44.798Z,505
2016-04-06T11:26:44.832Z,425
2016-04-06T11:27:44.804Z,400
2016-04-06T11:28:44.821Z,370
2016-04-06T11:29:44.809Z,360
2016-04-06T11:30:59.201Z,390
2016-04-06T11:31:44.829Z,425
2016-04-06T11:33:13.223Z,400
2016-04-06T11:33:45.710Z,395
2016-04-06T11:34:45.276Z,395
2016-04-06T11:35:46.434Z,455
2016-04-06T11:36:44.968Z,430
2016-04-06T11:37:46.924Z,430
2016-04-06T11:38:45.489Z,465
2016-04-06T11:40:13.648Z,530
2016-04-06T11:40:59.181Z,550
2016-04-06T11:41:45.982Z,560
2016-04-06T11:42:45.719Z,620
2016-04-06T11:43:45.768Z,580
2016-04-06T11:44:45.036Z,495
2016-04-06T11:45:48.102Z,475
2016-04-06T11:46:45.542Z,400
2016-04-06T11:47:45.639Z,380
2016-04-06T11:48:45.406Z,515
2016-04-06T11:49:45.566Z,570
2016-04-06T11:50:45.584Z,575
2016-04-06T11:51:44.914Z,595
2016-04-06T11:52:44.980Z,580
2016-04-06T11:53:44.919Z,510
2016-04-06T11:54:44.938Z,490
2016-04-06T11:55:44.941Z,460
2016-04-06T11:56:44.944Z,430
2016-04-06T11:57:44.947Z,435
2016-04-06T11:58:44.949Z,485
2016-04-06T11:59:44.968Z,530
2016-04-06T12:00:44.938Z,530
2016-04-06T12:01:44.988Z,550
2016-04-06T12:02:44.944Z,530
2016-04-06T12:03:44.994Z,460
2016-04-06T12:04:44.965Z,420
2016-04-06T12:05:44.984Z,430
2016-04-06T12:06:44.970Z,465
2016-04-06T12:07:44.997Z,470
2016-04-06T12:08:44.983Z,455
2016-04-06T12:09:45.001Z,485
2016-04-06T12:10:44.988Z,470
2016-04-06T12:11:44.991Z,440
2016-04-06T12:12:44.994Z,425
2016-04-06T12:13:44.980Z,410
2016-04-06T12:14:44.999Z,355
2016-04-06T12:15:45.018Z,335
2016-04-06T12:16:45.004Z,340
2016-04-06T12:17:45.025Z,350
2016-04-06T12:18:45.028Z,325
2016-04-06T12:19:45.046Z,310
2016-04-06T12:20:45.017Z,335
2016-04-06T12:21:45.036Z,370
2016-04-06T12:22:45.022Z,385
2016-04-06T12:23:45.041Z,380
2016-04-06T12:24:45.044Z,385
2016-04-06T12:25:45.062Z,370
2016-04-06T12:26:45.049Z,415
2016-04-06T12:27:45.052Z,495
2016-04-06T12:28:45.054Z,525
2016-04-06T12:29:45.072Z,460
2016-04-06T12:30:45.044Z,375
2016-04-06T12:31:45.047Z,315
2016-04-06T12:32:45.049Z,275
2016-04-06T12:33:45.069Z,260
2016-04-06T12:34:45.055Z,250
2016-04-06T12:35:45.104Z,245
2016-04-06T12:36:45.076Z,240
2016-04-06T12:37:45.094Z,240
2016-04-06T12:38:45.065Z,235
2016-04-06T12:39:45.085Z,235
2016-04-06T12:40:45.087Z,230
2016-04-06T12:41:45.105Z,230
2016-04-06T12:42:45.092Z,220
2016-04-06T12:43:45.095Z,215
2016-04-06T12:44:45.098Z,220
2016-04-06T12:45:45.132Z,225
2016-04-06T12:46:45.103Z,245
2016-04-06T12:47:45.089Z,245
2016-04-06T12:48:45.093Z,240
2016-04-06T12:49:46.611Z,245
2016-04-06T12:50:46.550Z,245
2016-04-06T12:51:45.928Z,245
2016-04-06T12:52:45.104Z,250
2016-04-06T12:53:45.465Z,255
2016-04-06T12:54:46.702Z,260
2016-04-06T12:55:47.206Z,265
2016-04-06T12:56:45.629Z,270
2016-04-06T12:57:46.492Z,265
2016-04-06T12:58:46.291Z,265
2016-04-06T12:59:45.575Z,260
2016-04-06T13:00:45.828Z,265
2016-04-06T13:01:46.175Z,275
2016-04-06T13:02:45.411Z,275
2016-04-06T13:04:47.386Z,295
2016-04-06T13:05:47.513Z,300
2016-04-06T13:06:45.141Z,305
2016-04-06T13:07:46.080Z,305
2016-04-06T13:08:45.163Z,320
2016-04-06T13:09:45.149Z,340
2016-04-06T13:10:45.370Z,330
2016-04-06T13:11:45.154Z,325
2016-04-06T13:12:45.178Z,295
2016-04-06T13:13:45.150Z,270
2016-04-06T13:14:45.168Z,245
2016-04-06T13:15:45.171Z,220
2016-04-06T13:16:45.174Z,225
2016-04-06T13:17:45.177Z,230
2016-04-06T13:18:45.257Z,250
2016-04-06T13:19:45.151Z,310
2016-04-06T13:20:45.168Z,365
2016-04-06T13:21:45.187Z,395
2016-04-06T13:22:45.159Z,410
2016-04-06T13:23:45.146Z,380
2016-04-06T13:24:45.148Z,355
2016-04-06T13:25:45.167Z,360
2016-04-06T13:26:45.170Z,360
2016-04-06T13:27:45.187Z,355
2016-04-06T13:28:45.175Z,355
2016-04-06T13:29:45.178Z,350
2016-04-06T13:30:45.165Z,340
2016-04-06T13:31:45.183Z,345
2016-04-06T13:32:45.154Z,355
2016-04-06T13:33:45.048Z,365
2016-04-06T13:34:45.206Z,370
2016-04-06T13:35:45.194Z,375
2016-04-06T13:36:45.212Z,395
2016-04-06T13:37:45.230Z,415
2016-04-06T13:38:45.217Z,415
2016-04-06T13:39:45.205Z,420
2016-04-06T13:40:45.222Z,430
2016-04-06T13:41:45.210Z,445
2016-04-06T13:42:45.213Z,455
2016-04-06T13:43:45.230Z,460
2016-04-06T13:44:45.218Z,425
2016-04-06T13:45:45.221Z,385
2016-04-06T13:46:45.208Z,345
2016-04-06T13:47:45.226Z,320
2016-04-06T13:48:45.197Z,310
2016-04-06T13:49:45.216Z,300
2016-04-06T13:50:45.202Z,305
2016-04-06T13:51:45.205Z,325
2016-04-06T13:52:45.240Z,315
2016-04-06T13:53:45.210Z,300
2016-04-06T13:54:45.260Z,295
2016-04-06T13:55:45.232Z,290
2016-04-06T13:56:45.265Z,270
2016-04-06T13:57:45.112Z,255
2016-04-06T13:58:45.240Z,265
2016-04-06T13:59:45.258Z,285
2016-04-06T14:00:45.214Z,305
2016-04-06T14:01:45.248Z,295
2016-04-06T14:02:45.235Z,295
2016-04-06T14:03:45.253Z,310
2016-04-06T14:04:45.256Z,310
2016-04-06T14:05:45.275Z,300
2016-04-06T14:06:45.323Z,295
2016-04-06T14:07:44.550Z,305
2016-04-06T14:08:46.005Z,300
2016-04-06T14:09:45.649Z,285
2016-04-06T14:10:45.277Z,275
2016-04-06T14:11:45.889Z,275